MASCOMA R @ MASCOMA: From 08/05/2019 17:00 to 08/20/2019 01:00

Date STAGE [FT] FLOW [CFS] LAKE ELEVATION [FT] PRECIPITATION INCREMENT [IN] AIR TEMPERATURE [F]
08/19/2019 20:00 -- -- -- 0.00 --
08/19/2019 19:00 2.18 54.3 749.99 0.00 84.6
08/19/2019 18:00 2.20 56.4 749.99 0.00 85.8
08/19/2019 17:00 2.18 54.3 749.99 0.00 85.5
08/19/2019 16:00 2.18 54.3 749.99 0.00 86.5
08/19/2019 15:00 2.20 56.4 749.99 0.00 86.2
08/19/2019 14:00 2.20 56.4 749.99 0.00 86.9
08/19/2019 13:00 2.21 57.5 749.99 0.00 82.8
08/19/2019 12:00 2.21 57.5 749.99 0.00 82.9
08/19/2019 11:00 2.22 58.6 749.99 0.00 78.8
08/19/2019 10:00 2.20 56.4 749.99 0.00 76.9
08/19/2019 09:00 2.20 56.4 749.99 0.00 69.3
08/19/2019 08:00 2.21 57.5 749.99 0.00 70.5
08/19/2019 07:00 2.20 56.4 749.99 0.00 66.6
08/19/2019 06:00 2.21 57.5 749.99 0.01 66.3
08/19/2019 05:00 2.21 57.5 749.99 0.00 67.7
08/19/2019 04:00 2.20 56.4 749.99 0.00 68.8
08/19/2019 03:00 2.19 55.3 749.99 0.00 69.1
08/19/2019 02:00 2.19 55.3 749.98 0.00 69.3
08/19/2019 01:00 2.20 56.4 749.98 0.02 70.2
08/19/2019 00:00 2.19 55.3 749.98 0.00 71.7
08/18/2019 23:00 2.17 53.2 749.97 0.05 71.7
08/18/2019 22:00 2.17 53.2 749.97 0.00 72.5
08/18/2019 21:00 2.17 53.2 749.97 0.00 73.0
08/18/2019 20:00 2.16 52.2 749.97 0.00 76.9
08/18/2019 19:00 2.15 51.1 749.97 0.00 81.7
08/18/2019 18:00 2.13 49.1 749.97 0.00 86.6
08/18/2019 17:00 2.12 48.1 749.96 0.00 85.7
08/18/2019 16:00 2.12 48.1 749.96 0.00 84.0
08/18/2019 15:00 2.13 49.1 749.96 0.00 83.6
08/18/2019 14:00 2.14 50.1 749.96 0.00 79.9
08/18/2019 13:00 2.15 51.1 749.96 0.00 77.0
08/18/2019 12:00 2.15 51.1 749.96 0.00 75.2
08/18/2019 11:00 2.15 51.1 749.96 0.00 70.9
08/18/2019 10:00 2.14 50.1 749.96 0.00 70.6
08/18/2019 09:00 2.14 50.1 749.96 0.00 67.2
08/18/2019 08:00 2.14 50.1 749.96 0.00 66.4
08/18/2019 07:00 2.15 51.1 749.96 0.00 66.0
08/18/2019 06:00 2.15 51.1 749.96 0.00 65.9
08/18/2019 05:00 2.15 51.1 749.96 0.00 65.4
08/18/2019 04:00 2.13 49.1 749.95 0.00 65.2
08/18/2019 03:00 2.14 50.1 749.96 0.01 65.4
08/18/2019 02:00 2.14 50.1 749.96 0.00 65.6
08/18/2019 01:00 2.12 48.1 749.95 0.00 65.0
08/18/2019 00:00 2.11 47.1 749.95 0.00 66.0
08/17/2019 23:00 2.12 48.1 749.95 0.00 66.3
08/17/2019 22:00 2.14 50.1 749.96 0.10 65.9
08/17/2019 21:00 2.07 43.2 749.91 0.56 65.8
08/17/2019 20:00 2.06 42.3 749.92 0.00 74.1
08/17/2019 19:00 2.08 44.2 749.92 0.00 75.3
08/17/2019 18:00 2.08 44.2 749.92 0.00 77.1
08/17/2019 17:00 2.07 43.2 749.92 0.00 78.3
08/17/2019 16:00 2.06 42.3 749.92 0.00 78.7
08/17/2019 15:00 2.06 42.3 749.91 0.00 81.4
08/17/2019 14:00 2.05 41.4 749.91 0.00 76.7
08/17/2019 13:00 2.05 41.4 749.91 0.00 75.1
08/17/2019 12:00 2.07 43.2 749.91 0.00 72.3
08/17/2019 11:00 2.06 42.3 749.91 0.00 68.9
08/17/2019 10:00 2.06 42.3 749.91 0.00 67.2
08/17/2019 09:00 2.06 42.3 749.91 0.00 66.4
08/17/2019 08:00 2.05 41.4 749.91 0.00 65.9
08/17/2019 07:00 2.05 41.4 749.91 0.00 66.0
08/17/2019 06:00 2.07 43.2 749.91 0.00 66.2
08/17/2019 05:00 2.06 42.3 749.91 0.00 66.4
08/17/2019 04:00 2.07 43.2 749.91 0.00 66.4
08/17/2019 03:00 2.07 43.2 749.91 0.00 66.4
08/17/2019 02:00 2.07 43.2 749.91 0.00 67.2
08/17/2019 01:00 2.06 42.3 749.91 0.00 67.9
08/17/2019 00:00 2.06 42.3 749.91 0.00 68.3
08/16/2019 23:00 2.06 42.3 749.91 0.00 69.8
08/16/2019 22:00 2.06 42.3 749.91 0.01 71.9
08/16/2019 21:00 2.05 41.4 749.91 0.00 72.7
08/16/2019 20:00 2.05 41.4 749.91 0.00 74.8
08/16/2019 19:00 2.04 40.5 749.91 0.00 76.9
08/16/2019 18:00 2.04 40.5 749.91 0.00 77.0
08/16/2019 17:00 2.05 41.4 749.91 0.00 75.6
08/16/2019 16:00 2.04 40.5 749.91 0.00 73.8
08/16/2019 15:00 2.07 43.2 749.91 0.00 72.6
08/16/2019 14:00 2.06 42.3 749.91 0.00 70.9
08/16/2019 13:00 2.07 43.2 749.91 0.00 68.5
08/16/2019 12:00 2.06 42.3 749.91 0.01 67.1
08/16/2019 11:00 2.05 41.4 749.90 0.00 67.5
08/16/2019 10:00 2.05 41.4 749.90 0.00 66.7
08/16/2019 09:00 2.06 42.3 749.90 0.01 66.6
08/16/2019 08:00 2.06 42.3 749.90 0.00 65.3
08/16/2019 07:00 2.05 41.4 749.90 0.00 64.5
08/16/2019 06:00 2.04 40.5 749.90 0.01 64.6
08/16/2019 05:00 2.03 39.6 749.89 0.01 65.4
08/16/2019 04:00 2.03 39.6 749.90 0.04 65.0
08/16/2019 03:00 2.02 38.7 749.89 0.00 66.8
08/16/2019 02:00 2.02 38.7 749.89 0.00 68.2
08/16/2019 01:00 2.01 37.8 749.89 0.00 68.3
08/16/2019 00:00 2.01 37.8 749.89 0.00 69.2
08/15/2019 23:00 2.01 37.8 749.89 0.00 70.6
08/15/2019 22:00 2.03 39.6 749.89 0.00 71.4
08/15/2019 21:00 2.01 37.8 749.89 0.00 72.5
08/15/2019 20:00 2.01 37.8 749.89 0.00 75.2
08/15/2019 19:00 2.01 37.8 749.89 0.00 77.0
08/15/2019 18:00 2.01 37.8 749.89 0.00 78.0
08/15/2019 17:00 2.00 36.9 749.88 0.00 82.0
08/15/2019 16:00 2.00 36.9 749.88 0.00 79.2
08/15/2019 15:00 2.03 39.6 749.88 0.00 74.9
08/15/2019 14:00 2.04 40.5 749.88 0.00 77.5
08/15/2019 13:00 2.05 41.4 749.88 0.00 73.6
08/15/2019 12:00 2.05 41.4 749.88 0.00 71.7
08/15/2019 11:00 2.05 41.4 749.88 0.00 68.9
08/15/2019 10:00 2.11 47.1 749.99 0.00 65.1
08/15/2019 09:00 2.12 48.1 749.88 0.00 61.9
08/15/2019 08:00 2.12 48.1 749.88 0.00 57.8
08/15/2019 07:00 2.13 49.1 749.88 0.00 57.2
08/15/2019 06:00 2.12 48.1 749.88 0.00 58.8
08/15/2019 05:00 2.12 48.1 749.88 0.00 60.7
08/15/2019 04:00 2.12 48.1 749.88 0.00 61.7
08/15/2019 03:00 2.12 48.1 749.88 0.00 62.4
08/15/2019 02:00 2.12 48.1 749.88 0.00 61.6
08/15/2019 01:00 2.11 47.1 749.88 0.00 61.9
08/15/2019 00:00 2.11 47.1 749.88 0.00 62.2
08/14/2019 23:00 2.10 46.1 749.88 0.00 63.9
08/14/2019 22:00 2.10 46.1 749.88 0.00 66.3
08/14/2019 21:00 2.10 46.1 749.88 0.00 71.1
08/14/2019 20:00 2.09 45.1 749.89 0.00 75.7
08/14/2019 19:00 2.07 43.2 749.89 0.00 77.1
08/14/2019 18:00 2.09 45.1 749.89 0.00 76.6
08/14/2019 17:00 2.08 44.2 749.89 0.00 78.9
08/14/2019 16:00 2.09 45.1 749.89 0.00 76.1
08/14/2019 15:00 2.10 46.1 749.89 0.00 78.0
08/14/2019 14:00 2.11 47.1 749.89 0.00 74.3
08/14/2019 13:00 2.12 48.1 749.89 0.00 72.5
08/14/2019 12:00 2.12 48.1 749.89 0.00 75.1
08/14/2019 11:00 2.12 48.1 749.88 0.00 72.9
08/14/2019 10:00 2.13 49.1 749.89 0.00 68.0
08/14/2019 09:00 2.14 50.1 749.89 0.00 63.7
08/14/2019 08:00 2.14 50.1 749.89 0.00 65.5
08/14/2019 07:00 2.13 49.1 749.89 0.00 58.6
08/14/2019 06:00 2.12 48.1 749.89 0.00 59.5
08/14/2019 05:00 2.12 48.1 749.89 0.00 59.8
08/14/2019 04:00 2.12 48.1 749.89 0.00 60.3
08/14/2019 03:00 2.12 48.1 749.89 0.00 60.5
08/14/2019 02:00 2.12 48.1 749.89 0.00 60.8
08/14/2019 01:00 2.12 48.1 749.89 0.00 61.7
08/14/2019 00:00 2.11 47.1 749.89 0.00 63.2
08/13/2019 23:00 2.12 48.1 749.89 0.00 65.2
08/13/2019 22:00 2.11 47.1 749.89 0.00 66.2
08/13/2019 21:00 2.11 47.1 749.89 0.00 69.5
08/13/2019 20:00 2.11 47.1 749.89 0.00 75.5
08/13/2019 19:00 2.10 46.1 749.89 0.00 78.4
08/13/2019 18:00 2.09 45.1 749.89 0.00 78.4
08/13/2019 17:00 2.10 46.1 749.89 0.00 78.8
08/13/2019 16:00 2.11 47.1 749.89 0.00 76.2
08/13/2019 15:00 2.10 46.1 749.89 0.01 73.6
08/13/2019 14:00 2.11 47.1 749.89 0.44 71.6
08/13/2019 13:00 2.10 46.1 749.88 0.00 79.6
08/13/2019 12:00 2.11 47.1 749.88 0.00 79.4
08/13/2019 11:00 2.11 47.1 749.88 0.00 74.3
08/13/2019 10:00 2.11 47.1 749.88 0.00 70.0
08/13/2019 09:00 2.11 47.1 749.88 0.01 68.0
08/13/2019 08:00 2.11 47.1 749.88 0.02 66.8
08/13/2019 07:00 2.10 46.1 749.88 0.00 66.6
08/13/2019 06:00 2.11 47.1 749.88 0.00 66.9
08/13/2019 05:00 2.11 47.1 749.88 0.00 65.5
08/13/2019 04:00 2.11 47.1 749.88 0.00 65.4
08/13/2019 03:00 2.11 47.1 749.88 0.00 64.8
08/13/2019 02:00 2.11 47.1 749.88 0.00 64.9
08/13/2019 01:00 2.11 47.1 749.88 0.00 65.7
08/13/2019 00:00 2.11 47.1 749.88 0.00 65.3
08/12/2019 23:00 2.11 47.1 749.88 0.00 65.5
08/12/2019 22:00 2.11 47.1 749.88 0.00 67.4
08/12/2019 21:00 2.11 47.1 749.88 0.00 70.9
08/12/2019 20:00 2.11 47.1 749.88 0.00 74.9
08/12/2019 19:00 2.10 46.1 749.88 0.00 76.9
08/12/2019 18:00 2.10 46.1 749.88 0.00 79.5
08/12/2019 17:00 2.09 45.1 749.88 0.00 81.9
08/12/2019 16:00 2.10 46.1 749.88 0.00 82.3
08/12/2019 15:00 2.09 45.1 749.88 0.00 82.1
08/12/2019 14:00 2.11 47.1 749.88 0.00 80.8
08/12/2019 13:00 2.11 47.1 749.88 0.00 80.1
08/12/2019 12:00 2.11 47.1 749.88 0.00 77.9
08/12/2019 11:00 2.13 49.1 749.88 0.00 67.9
08/12/2019 10:00 2.13 49.1 749.88 0.00 63.9
08/12/2019 09:00 2.13 49.1 749.88 0.00 60.6
08/12/2019 08:00 2.14 50.1 749.89 0.00 59.3
08/12/2019 07:00 2.13 49.1 749.88 0.00 55.0
08/12/2019 06:00 2.13 49.1 749.88 0.00 54.9
08/12/2019 05:00 2.13 49.1 749.89 0.00 55.4
08/12/2019 04:00 2.13 49.1 749.89 0.00 56.3
08/12/2019 03:00 2.14 50.1 749.89 0.00 56.6
08/12/2019 02:00 2.14 50.1 749.89 0.00 57.3
08/12/2019 01:00 2.13 49.1 749.89 0.00 57.9
08/12/2019 00:00 2.13 49.1 749.89 0.00 58.7
08/11/2019 23:00 2.14 50.1 749.89 0.00 60.0
08/11/2019 22:00 2.13 49.1 749.89 0.00 61.8
08/11/2019 21:00 2.13 49.1 749.89 0.00 65.7
08/11/2019 20:00 2.12 48.1 749.89 0.00 72.2
08/11/2019 19:00 2.10 46.1 749.88 0.00 76.1
08/11/2019 18:00 2.11 47.1 749.88 0.00 75.1
08/11/2019 17:00 2.11 47.1 749.88 0.00 75.0
08/11/2019 16:00 2.10 46.1 749.88 0.00 75.8
08/11/2019 15:00 2.11 47.1 749.88 0.00 76.8
08/11/2019 14:00 2.11 47.1 749.88 0.00 71.9
08/11/2019 13:00 2.11 47.1 749.88 0.00 72.4
08/11/2019 12:00 2.12 48.1 749.88 0.00 72.5
08/11/2019 11:00 2.14 50.1 749.89 0.00 66.5
08/11/2019 10:00 2.13 49.1 749.89 0.00 62.6
08/11/2019 09:00 2.13 49.1 749.89 0.00 61.4
08/11/2019 08:00 2.13 49.1 749.89 0.00 54.7
08/11/2019 07:00 2.14 50.1 749.89 0.00 49.3
08/11/2019 06:00 2.14 50.1 749.89 0.00 50.0
08/11/2019 05:00 2.13 49.1 749.89 0.01 49.7
08/11/2019 04:00 2.13 49.1 749.89 0.00 51.8
08/11/2019 03:00 2.14 50.1 749.90 0.00 52.1
08/11/2019 02:00 2.14 50.1 749.90 0.00 53.1
08/11/2019 01:00 2.14 50.1 749.90 0.00 54.4
08/11/2019 00:00 2.14 50.1 749.90 0.00 54.6
08/10/2019 23:00 2.15 51.1 749.90 0.00 55.6
08/10/2019 22:00 2.14 50.1 749.90 0.00 56.9
08/10/2019 21:00 2.14 50.1 749.90 0.00 59.8
08/10/2019 20:00 2.13 49.1 749.90 0.00 65.0
08/10/2019 19:00 2.11 47.1 749.90 0.00 68.0
08/10/2019 18:00 2.10 46.1 749.90 0.00 70.6
08/10/2019 17:00 2.10 46.1 749.90 0.00 69.5
08/10/2019 16:00 2.12 48.1 749.91 0.00 71.1
08/10/2019 15:00 2.11 47.1 749.91 0.02 68.4
08/10/2019 14:00 2.13 49.1 749.91 0.01 66.3
08/10/2019 13:00 2.13 49.1 749.90 0.00 64.5
08/10/2019 12:00 2.12 48.1 749.90 0.00 71.1
08/10/2019 11:00 2.12 48.1 749.90 0.00 68.9
08/10/2019 10:00 2.13 49.1 749.91 0.00 69.1
08/10/2019 09:00 2.14 50.1 749.91 0.00 62.7
08/10/2019 08:00 2.14 50.1 749.91 0.00 60.0
08/10/2019 07:00 2.14 50.1 749.91 0.00 55.3
08/10/2019 06:00 2.14 50.1 749.91 0.00 56.7
08/10/2019 05:00 2.14 50.1 749.91 0.00 57.4
08/10/2019 04:00 2.13 49.1 749.91 0.00 58.2
08/10/2019 03:00 2.14 50.1 749.91 0.00 58.5
08/10/2019 02:00 2.14 50.1 749.91 0.00 58.5
08/10/2019 01:00 2.13 49.1 749.91 0.00 60.0
08/10/2019 00:00 2.13 49.1 749.91 0.00 62.8
08/09/2019 23:00 2.13 49.1 749.91 0.00 65.6
08/09/2019 22:00 2.12 48.1 749.91 0.00 69.0
08/09/2019 21:00 2.14 50.1 749.92 0.00 68.8
08/09/2019 20:00 2.14 50.1 749.92 0.00 72.9
08/09/2019 19:00 2.12 48.1 749.92 0.00 75.9
08/09/2019 18:00 2.13 49.1 749.92 0.00 77.6
08/09/2019 17:00 2.10 46.1 749.92 0.00 80.8
08/09/2019 16:00 2.11 47.1 749.92 0.00 79.4
08/09/2019 15:00 2.12 48.1 749.92 0.00 77.8
08/09/2019 14:00 2.14 50.1 749.92 0.00 78.0
08/09/2019 13:00 2.15 51.1 749.92 0.00 77.1
08/09/2019 12:00 2.15 51.1 749.93 0.00 76.7
08/09/2019 11:00 2.16 52.2 749.93 0.00 75.7
08/09/2019 10:00 2.15 51.1 749.93 0.00 72.2
08/09/2019 09:00 2.14 50.1 749.93 0.00 73.3
08/09/2019 08:00 2.16 52.2 749.93 0.00 66.6
08/09/2019 07:00 2.16 52.2 749.93 0.00 60.8
08/09/2019 06:00 2.14 50.1 749.93 0.00 61.5
08/09/2019 05:00 2.14 50.1 749.93 0.00 62.3
08/09/2019 04:00 2.15 51.1 749.93 0.00 63.7
08/09/2019 03:00 2.15 51.1 749.93 0.00 62.7
08/09/2019 02:00 2.15 51.1 749.93 0.00 63.3
08/09/2019 01:00 2.15 51.1 749.93 0.00 65.6
08/09/2019 00:00 2.15 51.1 749.93 0.00 67.3
08/08/2019 23:00 2.15 51.1 749.94 0.00 68.1
08/08/2019 22:00 2.14 50.1 749.94 0.00 68.3
08/08/2019 21:00 2.15 51.1 749.94 0.00 68.5
08/08/2019 20:00 2.16 52.2 749.94 0.00 71.5
08/08/2019 19:00 2.16 52.2 749.94 0.00 73.4
08/08/2019 18:00 2.15 51.1 749.94 0.00 79.1
08/08/2019 17:00 2.11 47.1 749.94 0.00 83.9
08/08/2019 16:00 2.12 48.1 749.94 0.00 83.0
08/08/2019 15:00 2.14 50.1 749.94 0.00 81.3
08/08/2019 14:00 2.15 51.1 749.94 0.00 77.8
08/08/2019 13:00 2.15 51.1 749.94 0.00 75.3
08/08/2019 12:00 2.15 51.1 749.94 0.01 75.7
08/08/2019 11:00 2.15 51.1 749.94 0.14 70.7
08/08/2019 10:00 2.15 51.1 749.94 0.03 70.3
08/08/2019 09:00 2.15 51.1 749.94 0.00 69.9
08/08/2019 08:00 2.15 51.1 749.94 0.00 68.8
08/08/2019 07:00 2.15 51.1 749.94 0.00 68.2
08/08/2019 06:00 2.15 51.1 749.94 0.00 68.0
08/08/2019 05:00 2.16 52.2 749.94 0.00 68.4
08/08/2019 04:00 2.16 52.2 749.94 0.00 68.7
08/08/2019 03:00 2.15 51.1 749.94 0.00 69.3
08/08/2019 02:00 2.16 52.2 749.94 0.00 69.9
08/08/2019 01:00 2.17 53.2 749.94 0.00 70.2
08/08/2019 00:00 2.17 53.2 749.94 0.00 70.9
08/07/2019 23:00 2.14 50.1 749.94 0.00 71.7
08/07/2019 22:00 2.16 52.2 749.94 0.00 71.5
08/07/2019 21:00 2.15 51.1 749.94 0.00 72.5
08/07/2019 20:00 2.13 49.1 749.93 0.00 73.0
08/07/2019 19:00 2.12 48.1 749.93 0.00 76.1
08/07/2019 18:00 2.12 48.1 749.93 0.00 80.2
08/07/2019 17:00 2.13 49.1 749.93 0.00 80.9
08/07/2019 16:00 2.13 49.1 749.94 0.00 81.6
08/07/2019 15:00 2.16 52.2 749.94 0.00 80.4
08/07/2019 14:00 2.15 51.1 749.93 0.00 80.5
08/07/2019 13:00 2.15 51.1 749.93 0.00 75.2
08/07/2019 12:00 2.15 51.1 749.93 0.00 74.4
08/07/2019 11:00 2.15 51.1 749.93 0.00 73.1
08/07/2019 10:00 2.16 52.2 749.94 0.00 69.9
08/07/2019 09:00 2.16 52.2 749.94 0.00 67.7
08/07/2019 08:00 2.16 52.2 749.94 0.00 65.4
08/07/2019 07:00 2.16 52.2 749.94 0.00 64.2
08/07/2019 06:00 2.17 53.2 749.94 0.00 64.5
08/07/2019 05:00 2.16 52.2 749.94 0.00 65.0
08/07/2019 04:00 2.16 52.2 749.94 0.00 65.5
08/07/2019 03:00 2.15 51.1 749.94 0.00 66.5
08/07/2019 02:00 2.16 52.2 749.94 0.00 67.1
08/07/2019 01:00 2.16 52.2 749.94 0.00 68.2
08/07/2019 00:00 2.16 52.2 749.94 0.00 70.3
08/06/2019 23:00 2.16 52.2 749.94 0.00 70.6
08/06/2019 22:00 2.16 52.2 749.94 0.00 71.4
08/06/2019 21:00 2.16 52.2 749.94 0.00 74.3
08/06/2019 20:00 2.18 54.3 749.95 0.00 77.7
08/06/2019 19:00 2.17 53.2 749.95 0.00 79.9
08/06/2019 18:00 2.16 52.2 749.95 0.00 81.3
08/06/2019 17:00 2.16 52.2 749.95 0.00 81.0
08/06/2019 16:00 2.18 54.3 749.95 0.00 80.9
08/06/2019 15:00 2.17 53.2 749.94 0.00 81.2
08/06/2019 14:00 2.18 54.3 749.95 0.00 82.2
08/06/2019 13:00 2.19 55.3 749.95 0.00 81.2
08/06/2019 12:00 2.19 55.3 749.94 0.00 76.4
08/06/2019 11:00 2.21 57.5 749.95 0.00 68.2
08/06/2019 10:00 2.21 57.5 749.95 0.00 63.5
08/06/2019 09:00 2.20 56.4 749.95 0.00 58.8
08/06/2019 08:00 2.21 57.5 749.95 0.00 57.3
08/06/2019 07:00 2.21 57.5 749.95 0.00 54.5
08/06/2019 06:00 2.21 57.5 749.95 0.00 54.8
08/06/2019 05:00 2.21 57.5 749.95 0.00 55.4
08/06/2019 04:00 2.21 57.5 749.96 0.00 56.3
08/06/2019 03:00 2.22 58.6 749.96 0.00 56.4
08/06/2019 02:00 2.22 58.6 749.96 0.00 58.1
08/06/2019 01:00 2.23 59.7 749.97 0.00 58.6
08/06/2019 00:00 2.22 58.6 749.97 0.00 60.0
08/05/2019 23:00 2.22 58.6 749.97 0.00 60.6
08/05/2019 22:00 2.22 58.6 749.96 0.00 62.7
08/05/2019 21:00 2.21 57.5 749.96 0.00 67.6
08/05/2019 20:00 2.20 56.4 749.96 0.00 74.4
08/05/2019 19:00 -- -- -- -- --
08/05/2019 18:00 -- -- -- -- --
08/05/2019 17:00 -- -- -- -- --